Terminal Aerodrome Forecast
Issued by NWS Duluth, MN

Home | Current Version | Previous Version | Text Only | Print | Product List | Glossary On
Versions: 1 2 3 4 5 6 7 8 9 10 11 12 13 14 15 16 17 18 19 20 21 22 23 24 25 26 27 28 29 30 31 32 33 34 35 36
702
FTUS43 KDLH 122112 AAA
TAFINL
TAF AMD
KINL 122112Z 1221/1318 13007KT 3SM -SN BKN040 OVC045
     FM122300 15004KT 5SM -SN BKN012 OVC025
     FM130700 13005KT 5SM -SN BR OVC008=

USA.gov is the U.S. government's official web portal to all federal, state and local government web resources and services.